createdAt,value
2022-09-27T00:03:25.740Z,4.60
2022-09-27T00:07:30.276Z,2.83
2022-09-27T00:11:36.132Z,3.35
2022-09-27T00:15:39.777Z,3.92
2022-09-27T00:19:43.150Z,3.47
2022-09-27T00:23:47.667Z,2.92
2022-09-27T00:27:51.084Z,3.50
2022-09-27T00:31:54.861Z,2.97
2022-09-27T00:36:05.496Z,3.38
2022-09-27T00:40:13.171Z,3.45
2022-09-27T00:45:03.862Z,3.05
2022-09-27T00:49:14.667Z,3.15
2022-09-27T00:53:23.322Z,4.20
2022-09-27T00:57:28.299Z,3.47
2022-09-27T01:01:31.787Z,2.70
2022-09-27T01:05:35.875Z,2.90
2022-09-27T01:09:39.478Z,4.20
2022-09-27T01:13:54.073Z,3.85
2022-09-27T01:18:11.095Z,2.92
2022-09-27T01:22:18.392Z,3.38
2022-09-27T01:26:36.856Z,3.70
2022-09-27T01:30:47.117Z,2.97
2022-09-27T01:34:58.959Z,3.53
2022-09-27T01:39:17.327Z,4.45
2022-09-27T01:44:06.330Z,2.92
2022-09-27T01:48:22.399Z,4.07
2022-09-27T01:52:33.133Z,3.33
2022-09-27T01:56:41.772Z,2.63
2022-09-27T02:00:53.876Z,2.97
2022-09-27T02:05:03.555Z,3.22
2022-09-27T02:09:11.930Z,4.68
2022-09-27T02:13:37.453Z,4.28
2022-09-27T02:18:07.150Z,3.65
2022-09-27T02:22:19.124Z,3.58
2022-09-27T02:26:26.269Z,3.25
2022-09-27T02:30:30.326Z,3.33
2022-09-27T02:34:46.108Z,3.30
2022-09-27T02:38:51.297Z,3.17
2022-09-27T02:42:58.128Z,3.90
2022-09-27T02:47:14.484Z,3.35
2022-09-27T02:51:28.422Z,4.47
2022-09-27T02:55:44.407Z,4.07
2022-09-27T03:00:11.984Z,3.80
2022-09-27T03:04:40.628Z,3.38
2022-09-27T03:08:45.260Z,3.80
2022-09-27T03:12:50.480Z,4.13
2022-09-27T03:16:53.769Z,5.22
2022-09-27T03:21:32.773Z,4.10
2022-09-27T03:25:36.241Z,3.60
2022-09-27T03:29:41.403Z,3.35
2022-09-27T03:33:45.795Z,3.30
2022-09-27T03:37:49.354Z,5.15
2022-09-27T03:41:53.180Z,4.00
2022-09-27T03:45:58.282Z,5.85
2022-09-27T03:50:01.704Z,3.63
2022-09-27T03:54:05.061Z,4.53
2022-09-27T03:58:08.263Z,4.18
2022-09-27T04:02:13.019Z,3.70
2022-09-27T04:06:39.219Z,3.70
2022-09-27T04:10:43.257Z,4.00
2022-09-27T04:14:46.468Z,5.03
2022-09-27T04:19:13.912Z,3.90
2022-09-27T04:23:28.997Z,2.97
2022-09-27T04:27:33.567Z,3.53
2022-09-27T04:31:37.948Z,5.53
2022-09-27T04:36:12.444Z,3.63
2022-09-27T04:40:20.263Z,3.45
2022-09-27T04:44:23.669Z,3.63
2022-09-27T04:48:27.146Z,2.92
2022-09-27T04:52:32.327Z,3.83
2022-09-27T04:56:35.507Z,3.22
2022-09-27T05:00:42.908Z,4.88
2022-09-27T05:05:18.272Z,4.85
2022-09-27T05:09:23.140Z,3.13
2022-09-27T05:13:29.353Z,4.35
2022-09-27T05:17:32.551Z,2.92
2022-09-27T05:22:07.761Z,2.53
2022-09-27T05:26:13.022Z,3.70
2022-09-27T05:30:16.944Z,4.30
2022-09-27T05:34:26.487Z,3.50
2022-09-27T05:38:37.051Z,4.30
2022-09-27T05:42:42.955Z,2.95
2022-09-27T05:46:46.672Z,4.07
2022-09-27T05:50:50.097Z,3.78
2022-09-27T05:54:53.329Z,4.20
2022-09-27T05:58:58.906Z,3.60
2022-09-27T06:03:07.952Z,5.72
2022-09-27T06:07:34.743Z,4.63
2022-09-27T06:11:44.425Z,3.92
2022-09-27T06:15:53.894Z,5.32
2022-09-27T06:19:57.656Z,3.83
2022-09-27T06:24:01.197Z,3.50
2022-09-27T06:28:09.415Z,4.20
2022-09-27T06:32:16.428Z,6.22
2022-09-27T06:36:33.817Z,3.58
2022-09-27T06:40:38.889Z,4.18
2022-09-27T06:45:06.226Z,4.40
2022-09-27T06:49:30.987Z,4.90
2022-09-27T06:53:34.346Z,4.68
2022-09-27T06:57:54.635Z,4.47
2022-09-27T07:01:57.952Z,4.90
2022-09-27T07:06:24.182Z,5.50
2022-09-27T07:10:45.552Z,5.32
2022-09-27T07:14:49.897Z,6.55
2022-09-27T07:18:54.490Z,5.50
2022-09-27T07:22:59.958Z,6.78
2022-09-27T07:27:03.126Z,8.20
2022-09-27T07:31:09.119Z,7.22
2022-09-27T07:35:15.208Z,5.45
2022-09-27T07:39:22.129Z,7.07
2022-09-27T07:43:25.728Z,7.95
2022-09-27T07:47:29.373Z,5.57
2022-09-27T07:51:44.799Z,5.72
2022-09-27T07:56:08.537Z,4.85
2022-09-27T08:00:15.396Z,5.70
2022-09-27T08:04:20.255Z,5.90
2022-09-27T08:08:23.874Z,7.65
2022-09-27T08:12:30.607Z,5.43
2022-09-27T08:16:34.809Z,5.68
2022-09-27T08:20:52.221Z,7.28
2022-09-27T08:25:11.258Z,7.70
2022-09-27T08:29:42.021Z,6.13
2022-09-27T08:33:45.442Z,7.43
2022-09-27T08:37:54.792Z,7.13
2022-09-27T08:42:07.253Z,8.90
2022-09-27T08:46:28.819Z,4.88
2022-09-27T08:50:39.740Z,5.70
2022-09-27T08:54:48.262Z,5.53
2022-09-27T08:58:58.972Z,4.97
2022-09-27T09:03:18.377Z,3.03
2022-09-27T09:07:38.538Z,3.63
2022-09-27T09:12:08.731Z,3.95
2022-09-27T09:16:28.984Z,4.03
2022-09-27T09:20:51.908Z,2.65
2022-09-27T09:25:07.283Z,3.20
2022-09-27T09:29:24.787Z,2.88
2022-09-27T09:33:33.233Z,2.30
2022-09-27T09:37:42.492Z,2.72
2022-09-27T09:42:06.310Z,1.92
2022-09-27T09:46:14.709Z,2.97
2022-09-27T09:50:20.400Z,1.75
2022-09-27T09:54:31.623Z,1.90
2022-09-27T09:58:41.874Z,1.30
2022-09-27T10:02:50.533Z,1.63
2022-09-27T10:07:00.657Z,1.60
2022-09-27T10:11:21.105Z,1.50
2022-09-27T10:15:43.120Z,1.95
2022-09-27T10:19:49.709Z,1.48
2022-09-27T10:24:16.491Z,1.17
2022-09-27T10:28:51.082Z,1.23
2022-09-27T10:33:02.353Z,1.27
2022-09-27T10:37:18.799Z,1.58
2022-09-27T10:41:44.518Z,2.00
2022-09-27T10:46:16.681Z,1.25
2022-09-27T10:50:48.970Z,1.67
2022-09-27T10:55:02.967Z,2.50
2022-09-27T10:59:06.796Z,1.25
2022-09-27T11:03:17.356Z,1.20
2022-09-27T11:07:23.588Z,1.70
2022-09-27T11:11:45.315Z,3.50
2022-09-27T11:16:04.741Z,1.90
2022-09-27T11:20:36.008Z,2.38
2022-09-27T11:24:54.159Z,1.48
2022-09-27T11:29:09.908Z,2.05
2022-09-27T11:33:46.839Z,2.58
2022-09-27T11:38:01.367Z,1.60
2022-09-27T11:42:25.018Z,1.23
2022-09-27T11:46:40.365Z,2.15
2022-09-27T11:50:56.895Z,1.35
2022-09-27T11:55:16.767Z,2.45
2022-09-27T11:59:46.602Z,1.00
2022-09-27T12:04:11.757Z,0.70
2022-09-27T12:08:38.712Z,0.88
2022-09-27T12:12:45.745Z,0.80
2022-09-27T12:16:53.276Z,0.68
2022-09-27T12:21:00.962Z,1.05
2022-09-27T12:25:05.700Z,1.30
2022-09-27T12:29:23.827Z,0.70
2022-09-27T12:33:35.639Z,0.65
2022-09-27T12:37:44.837Z,2.15
2022-09-27T12:41:56.440Z,0.70
2022-09-27T12:46:22.788Z,1.52
2022-09-27T12:50:32.383Z,1.00
2022-09-27T12:55:04.379Z,1.08
2022-09-27T12:59:21.723Z,1.85
2022-09-27T13:03:56.304Z,1.15
2022-09-27T13:08:23.769Z,1.92
2022-09-27T13:12:29.389Z,0.80
2022-09-27T13:16:42.428Z,0.70
2022-09-27T13:20:49.332Z,0.80
2022-09-27T13:25:01.659Z,0.90
2022-09-27T13:29:34.716Z,2.05
2022-09-27T13:33:46.896Z,1.13
2022-09-27T13:37:59.493Z,1.02
2022-09-27T13:42:22.411Z,1.05
2022-09-27T13:46:29.161Z,1.75
2022-09-27T13:50:40.939Z,1.35
2022-09-27T13:54:55.213Z,0.90
2022-09-27T13:59:05.834Z,1.08
2022-09-27T14:03:49.488Z,0.60
2022-09-27T14:07:53.939Z,0.60
2022-09-27T14:12:01.195Z,0.70
2022-09-27T14:16:07.285Z,1.10
2022-09-27T14:20:35.604Z,1.38
2022-09-27T14:24:51.727Z,0.60
2022-09-27T14:29:01.911Z,1.50
2022-09-27T14:33:29.479Z,0.77
2022-09-27T14:37:36.403Z,1.27
2022-09-27T14:41:48.158Z,1.90
2022-09-27T14:45:54.895Z,1.30
2022-09-27T14:50:01.083Z,1.65
2022-09-27T14:54:05.698Z,0.77
2022-09-27T14:58:35.960Z,1.45
2022-09-27T15:02:42.630Z,1.20
2022-09-27T15:06:46.795Z,1.10
2022-09-27T15:10:50.143Z,1.40
2022-09-27T15:14:58.237Z,0.52
2022-09-27T15:19:03.891Z,0.43
2022-09-27T15:23:07.182Z,0.57
2022-09-27T15:27:18.566Z,1.30
2022-09-27T15:31:30.787Z,0.50
2022-09-27T15:35:36.945Z,0.50
2022-09-27T15:39:42.166Z,0.70
2022-09-27T15:43:47.149Z,0.50
2022-09-27T15:47:51.427Z,0.60
2022-09-27T15:51:58.031Z,0.25
2022-09-27T15:56:02.198Z,0.52
2022-09-27T16:00:06.025Z,0.40
2022-09-27T16:04:15.095Z,0.63
2022-09-27T16:08:19.467Z,1.52
2022-09-27T16:12:22.623Z,0.52
2022-09-27T16:16:25.809Z,0.57
2022-09-27T16:20:29.466Z,0.50
2022-09-27T16:24:34.147Z,0.50
2022-09-27T16:28:37.433Z,0.73
2022-09-27T16:32:42.456Z,0.50
2022-09-27T16:36:45.470Z,0.30
2022-09-27T16:40:49.895Z,0.50
2022-09-27T16:44:53.906Z,0.98
2022-09-27T16:48:57.294Z,1.58
2022-09-27T16:53:00.381Z,1.15
2022-09-27T16:57:05.223Z,0.50
2022-09-27T17:01:08.487Z,0.55
2022-09-27T17:05:12.106Z,0.40
2022-09-27T17:09:15.066Z,1.15
2022-09-27T17:13:19.803Z,0.85
2022-09-27T17:17:22.800Z,0.43
2022-09-27T17:21:25.968Z,5.68
2022-09-27T17:25:29.006Z,1.27
2022-09-27T17:29:33.539Z,0.47
2022-09-27T17:33:43.454Z,0.25
2022-09-27T17:37:46.793Z,0.40
2022-09-27T17:41:49.987Z,0.65
2022-09-27T17:45:54.311Z,0.40
2022-09-27T17:50:14.775Z,1.65
2022-09-27T17:54:19.710Z,0.50
2022-09-27T17:58:22.895Z,0.60
2022-09-27T18:02:28.185Z,0.40
2022-09-27T18:06:31.527Z,0.38
2022-09-27T18:10:35.505Z,0.28
2022-09-27T18:14:38.375Z,0.38
2022-09-27T18:18:44.831Z,0.57
2022-09-27T18:22:47.687Z,0.30
2022-09-27T18:26:50.690Z,0.25
2022-09-27T18:30:53.637Z,0.30
2022-09-27T18:34:58.043Z,0.40
2022-09-27T18:39:02.426Z,0.40
2022-09-27T18:43:05.970Z,0.35
2022-09-27T18:47:09.213Z,0.40
2022-09-27T18:51:16.126Z,0.40
2022-09-27T18:55:22.146Z,0.40
2022-09-27T18:59:28.967Z,0.30
2022-09-27T19:03:32.408Z,1.02
2022-09-27T19:07:38.724Z,0.40
2022-09-27T19:11:42.183Z,0.95
2022-09-27T19:15:54.719Z,0.30
2022-09-27T19:20:11.997Z,0.40
2022-09-27T19:24:16.713Z,0.50
2022-09-27T19:28:20.719Z,0.90
2022-09-27T19:32:23.599Z,0.50
2022-09-27T19:36:28.979Z,0.70
2022-09-27T19:40:33.397Z,0.30
2022-09-27T19:44:36.323Z,0.30
2022-09-27T19:48:39.916Z,0.80
2022-09-27T19:52:43.158Z,0.45
2022-09-27T19:56:49.293Z,0.50
2022-09-27T20:00:59.586Z,0.85
2022-09-27T20:05:02.566Z,0.50
2022-09-27T20:09:05.715Z,0.75
2022-09-27T20:13:10.493Z,0.77
2022-09-27T20:17:13.593Z,0.80
2022-09-27T20:21:18.053Z,0.80
2022-09-27T20:25:21.015Z,0.68
2022-09-27T20:29:25.221Z,1.25
2022-09-27T20:33:46.551Z,0.40
2022-09-27T20:37:49.446Z,0.50
2022-09-27T20:41:52.533Z,10.45
2022-09-27T20:46:03.191Z,0.60
2022-09-27T20:50:07.164Z,0.93
2022-09-27T20:54:12.413Z,0.68
2022-09-27T20:58:15.334Z,0.70
2022-09-27T21:02:20.118Z,3.88
2022-09-27T21:06:23.981Z,0.82
2022-09-27T21:10:27.050Z,0.73
2022-09-27T21:14:29.906Z,0.60
2022-09-27T21:18:34.710Z,0.80
2022-09-27T21:22:37.753Z,1.15
2022-09-27T21:26:40.615Z,1.48
2022-09-27T21:30:43.831Z,0.60
2022-09-27T21:34:48.309Z,0.93
2022-09-27T21:38:51.755Z,0.93
2022-09-27T21:42:57.789Z,0.88
2022-09-27T21:47:00.898Z,0.65
2022-09-27T21:51:08.230Z,1.27
2022-09-27T21:55:11.236Z,2.20
2022-09-27T21:59:16.119Z,0.50
2022-09-27T22:03:20.306Z,0.60
2022-09-27T22:07:24.559Z,0.47
2022-09-27T22:11:30.030Z,0.90
2022-09-27T22:15:35.362Z,0.60
2022-09-27T22:19:39.242Z,0.52
2022-09-27T22:23:45.595Z,0.52
2022-09-27T22:27:48.839Z,1.27
2022-09-27T22:31:51.940Z,0.93
2022-09-27T22:35:54.938Z,0.40
2022-09-27T22:39:59.206Z,0.80
2022-09-27T22:44:02.497Z,0.50
2022-09-27T22:48:05.702Z,0.40
2022-09-27T22:52:08.723Z,0.40
2022-09-27T22:56:16.174Z,0.70
2022-09-27T23:00:19.166Z,0.40
2022-09-27T23:04:22.588Z,0.57
2022-09-27T23:08:25.508Z,0.68
2022-09-27T23:12:31.056Z,0.45
2022-09-27T23:16:35.536Z,0.50
2022-09-27T23:20:39.335Z,0.40
2022-09-27T23:24:42.223Z,0.30
2022-09-27T23:28:46.614Z,0.40
2022-09-27T23:32:54.295Z,0.50
2022-09-27T23:36:57.199Z,0.25
2022-09-27T23:41:00.537Z,1.10
2022-09-27T23:45:05.401Z,0.73
2022-09-27T23:49:09.310Z,0.40
2022-09-27T23:53:12.374Z,1.25
2022-09-27T23:57:15.537Z,0.43
